Time;durP1;ratioP1;P1;durP2;ratioP2;P2;SDS_P1;SDS_P2;PMS_P1;PMS_P2;Temp;Humidity;BMP_temperature;BMP_pressure;BME280_temperature;BME280_humidity;BME280_pressure;Samples;Min_cycle;Max_cycle;Signal;HPM_P1;HPM_P2
2023/07/06 00:00:48;;;;;;;15.50;9.25;;;589.50;2432.00;;;;;;4999184;28;20090;-80
2023/07/06 00:03:16;;;;;;;13.40;8.98;;;589.40;2432.00;;;;;;5016091;28;20101;-79
2023/07/06 00:05:45;;;;;;;12.60;8.73;;;589.30;2432.00;;;;;;5016302;28;20479;-79
2023/07/06 00:08:14;;;;;;;13.57;8.75;;;589.40;2432.00;;;;;;5016189;28;20025;-79
2023/07/06 00:10:43;;;;;;;14.10;8.65;;;589.30;2432.00;;;;;;5016080;28;20040;-80
2023/07/06 00:13:10;;;;;;;15.18;8.80;;;589.30;2432.00;;;;;;5016162;28;20032;-82
2023/07/06 00:15:37;;;;;;;14.13;8.18;;;589.20;2432.00;;;;;;5012634;28;20076;-80
2023/07/06 00:18:04;;;;;;;12.63;8.77;;;589.30;2432.00;;;;;;5017821;28;20033;-81
2023/07/06 00:20:37;;;;;;;14.80;8.55;;;589.30;2432.00;;;;;;5017872;28;20382;-80
2023/07/06 00:23:08;;;;;;;11.70;8.23;;;589.30;2432.00;;;;;;5017129;28;20026;-83
2023/07/06 00:25:34;;;;;;;12.85;8.60;;;589.20;2432.00;;;;;;5017024;28;20041;-82
2023/07/06 00:28:02;;;;;;;13.10;9.10;;;589.20;2432.00;;;;;;5017408;28;20120;-82
2023/07/06 00:33:16;;;;;;;14.13;8.90;;;589.30;2432.00;;;;;;5002708;28;20135;-80
2023/07/06 00:35:42;;;;;;;13.90;9.32;;;589.20;2432.00;;;;;;5018252;28;20036;-81
2023/07/06 00:38:12;;;;;;;14.13;9.32;;;589.20;2432.00;;;;;;5018304;28;20022;-80
2023/07/06 00:40:39;;;;;;;10.70;8.45;;;589.20;2432.00;;;;;;5018647;28;20464;-81
2023/07/06 00:43:09;;;;;;;13.00;9.02;;;589.20;2432.00;;;;;;5016515;28;20049;-81
2023/07/06 00:45:37;;;;;;;13.23;9.38;;;589.20;2432.00;;;;;;5017436;28;20034;-81
2023/07/06 00:48:03;;;;;;;13.88;9.32;;;589.10;2432.00;;;;;;5022752;28;20439;-84
2023/07/06 00:50:30;;;;;;;14.02;9.35;;;589.10;2432.00;;;;;;5052587;28;20082;-83
2023/07/06 00:53:11;;;;;;;15.15;9.40;;;589.00;2432.00;;;;;;5056861;28;20032;-80
2023/07/06 00:55:40;;;;;;;15.57;9.02;;;589.00;2432.00;;;;;;5038821;28;20032;-82
2023/07/06 00:58:15;;;;;;;14.00;9.65;;;589.00;2432.00;;;;;;5038558;28;20045;-84
2023/07/06 01:00:43;;;;;;;11.63;8.55;;;589.00;2432.00;;;;;;5038366;28;20382;-84
2023/07/06 01:03:10;;;;;;;12.65;8.88;;;588.90;2432.00;;;;;;5056498;28;20364;-78
2023/07/06 01:05:39;;;;;;;15.52;9.10;;;589.00;2432.00;;;;;;5013694;28;20052;-80
2023/07/06 01:08:16;;;;;;;15.73;9.18;;;588.90;2432.00;;;;;;5036363;28;20033;-83
2023/07/06 01:10:43;;;;;;;13.70;8.93;;;588.90;2432.00;;;;;;5035270;28;20052;-79
2023/07/06 01:13:09;;;;;;;14.05;8.82;;;588.90;2432.00;;;;;;5036268;28;20022;-81
2023/07/06 01:15:43;;;;;;;14.40;8.93;;;589.00;2432.00;;;;;;5035902;28;20036;-78
2023/07/06 01:18:38;;;;;;;14.13;8.70;;;588.90;2432.00;;;;;;5035988;28;20018;-77
2023/07/06 01:21:19;;;;;;;13.82;8.68;;;588.90;2432.00;;;;;;4971560;28;20181;-78
2023/07/06 01:23:45;;;;;;;13.35;9.43;;;588.90;2432.00;;;;;;4955948;28;20051;-77
2023/07/06 01:26:31;;;;;;;13.73;8.57;;;588.90;2432.00;;;;;;4973074;28;20174;-78
2023/07/06 01:29:15;;;;;;;13.10;9.13;;;588.90;2432.00;;;;;;4973945;28;20376;-78
2023/07/06 01:31:55;;;;;;;12.90;9.05;;;588.90;2432.00;;;;;;4968621;28;20038;-78
2023/07/06 01:34:46;;;;;;;17.67;8.90;;;588.80;2432.00;;;;;;4972910;28;20054;-80
2023/07/06 01:37:22;;;;;;;16.10;9.60;;;564.10;2432.00;;;;;;4955176;28;20026;-80
2023/07/06 01:39:48;;;;;;;13.65;9.55;;;564.10;2432.00;;;;;;4973944;28;20023;-81
2023/07/06 01:42:26;;;;;;;13.63;9.55;;;564.00;2432.00;;;;;;4976281;28;20027;-79
2023/07/06 01:44:56;;;;;;;14.60;9.57;;;564.00;2432.00;;;;;;4973383;28;20130;-83
2023/07/06 01:47:23;;;;;;;14.07;9.90;;;564.00;2432.00;;;;;;4957892;28;20022;-79
2023/07/06 01:49:50;;;;;;;13.45;9.13;;;564.00;2432.00;;;;;;4973551;28;20070;-79
2023/07/06 01:52:24;;;;;;;14.60;8.93;;;564.00;2432.00;;;;;;4971249;28;20127;-78
2023/07/06 01:55:30;;;;;;;14.50;9.60;;;563.90;2432.00;;;;;;4973040;28;20060;-77
2023/07/06 01:58:05;;;;;;;16.65;9.77;;;563.90;2432.00;;;;;;4996493;28;20041;-79
2023/07/06 02:00:34;;;;;;;13.20;9.75;;;563.90;2432.00;;;;;;5033901;28;20082;-80
2023/07/06 02:03:01;;;;;;;12.68;9.88;;;564.00;2432.00;;;;;;5034166;28;20020;-78
2023/07/06 02:05:27;;;;;;;14.40;10.25;;;564.00;2432.00;;;;;;5034000;28;20108;-78
2023/07/06 02:07:53;;;;;;;12.55;9.32;;;564.00;2432.00;;;;;;5016018;28;20033;-78
2023/07/06 02:10:22;;;;;;;13.18;9.27;;;564.00;2432.00;;;;;;5010522;28;20026;-78
2023/07/06 02:12:48;;;;;;;13.98;9.43;;;564.00;2432.00;;;;;;5018549;28;20044;-81
2023/07/06 02:15:20;;;;;;;15.73;8.93;;;564.00;2432.00;;;;;;5033097;28;20029;-79
2023/07/06 02:17:47;;;;;;;13.48;9.20;;;563.90;2432.00;;;;;;5033342;28;20030;-78
2023/07/06 02:20:15;;;;;;;12.95;9.10;;;563.90;2432.00;;;;;;5011492;28;20037;-80
2023/07/06 02:22:41;;;;;;;13.52;9.38;;;563.90;2432.00;;;;;;5032548;28;20028;-80
2023/07/06 02:25:08;;;;;;;14.13;9.70;;;563.80;2432.00;;;;;;5033083;28;20501;-78
2023/07/06 02:27:33;;;;;;;13.48;9.45;;;563.90;2432.00;;;;;;5028409;28;20080;-79
2023/07/06 02:30:00;;;;;;;13.18;8.85;;;563.70;2432.00;;;;;;5033307;28;20380;-77
2023/07/06 02:32:26;;;;;;;13.45;9.30;;;563.60;2432.00;;;;;;5032469;28;20025;-78
2023/07/06 02:34:53;;;;;;;13.70;9.75;;;563.60;2432.00;;;;;;5032363;28;20114;-79
2023/07/06 02:37:19;;;;;;;13.15;9.63;;;563.60;2432.00;;;;;;5033210;28;20018;-78
2023/07/06 02:39:45;;;;;;;13.80;9.80;;;563.60;2432.00;;;;;;5032682;28;20471;-79
2023/07/06 02:42:14;;;;;;;14.60;9.77;;;563.60;2432.00;;;;;;5032450;28;20034;-77
2023/07/06 02:44:40;;;;;;;13.38;9.52;;;563.50;2432.00;;;;;;5023757;28;20025;-79
2023/07/06 02:47:10;;;;;;;13.00;9.15;;;563.50;2432.00;;;;;;5029569;28;20025;-81
2023/07/06 02:49:36;;;;;;;14.70;9.80;;;563.50;2432.00;;;;;;5033126;28;20021;-79
2023/07/06 02:52:02;;;;;;;14.88;9.73;;;563.40;2432.00;;;;;;5032774;28;20433;-78
2023/07/06 02:54:28;;;;;;;13.68;9.45;;;563.40;2432.00;;;;;;5032039;28;20104;-78
2023/07/06 02:56:56;;;;;;;13.30;9.82;;;563.30;2432.00;;;;;;5028713;28;20036;-78
2023/07/06 02:59:22;;;;;;;13.00;9.43;;;563.30;2432.00;;;;;;5015231;28;20021;-89
2023/07/06 03:01:48;;;;;;;13.80;9.27;;;563.30;2432.00;;;;;;5029260;28;20037;-78
2023/07/06 03:04:15;;;;;;;13.52;9.75;;;563.30;2432.00;;;;;;5032573;28;20018;-78
2023/07/06 03:06:41;;;;;;;13.57;9.05;;;563.30;2432.00;;;;;;5032201;28;20104;-78
2023/07/06 03:09:09;;;;;;;14.60;9.65;;;563.30;2432.00;;;;;;5032892;28;20614;-79
2023/07/06 03:11:36;;;;;;;14.93;9.00;;;563.20;2432.00;;;;;;5032524;28;20036;-79
2023/07/06 03:14:03;;;;;;;13.70;9.10;;;563.20;2432.00;;;;;;5032679;28;20030;-78
2023/07/06 03:16:38;;;;;;;14.52;9.63;;;563.20;2432.00;;;;;;5028670;28;20025;-78
2023/07/06 03:19:04;;;;;;;14.82;9.10;;;538.50;2406.40;;;;;;5030909;28;20053;-80
2023/07/06 03:21:30;;;;;;;14.93;9.60;;;538.50;2406.40;;;;;;5031956;28;20094;-79
2023/07/06 03:23:55;;;;;;;13.85;8.98;;;538.50;2406.40;;;;;;5032530;28;20068;-78
2023/07/06 03:26:22;;;;;;;12.98;8.60;;;538.50;2406.40;;;;;;5029436;28;20030;-78
2023/07/06 03:28:49;;;;;;;12.73;9.27;;;538.50;2406.40;;;;;;5032151;28;20428;-77
2023/07/06 03:31:16;;;;;;;12.90;9.05;;;538.50;2406.40;;;;;;5015047;28;20075;-78
2023/07/06 03:33:42;;;;;;;12.32;8.63;;;538.50;2406.40;;;;;;5026627;28;20042;-78
2023/07/06 03:36:08;;;;;;;14.32;8.80;;;538.50;2406.40;;;;;;5031922;28;20027;-79
2023/07/06 03:38:36;;;;;;;11.88;8.55;;;563.20;2432.00;;;;;;5031773;28;20109;-78
2023/07/06 03:41:04;;;;;;;12.48;8.45;;;563.20;2432.00;;;;;;5029508;28;20081;-77
2023/07/06 03:43:31;;;;;;;14.60;8.60;;;563.20;2432.00;;;;;;5014823;28;20510;-79
2023/07/06 03:45:57;;;;;;;13.00;7.78;;;563.20;2432.00;;;;;;5032041;28;20065;-79
2023/07/06 03:48:23;;;;;;;11.95;7.88;;;563.20;2432.00;;;;;;5031851;28;20052;-79
2023/07/06 03:50:52;;;;;;;12.85;7.82;;;563.20;2432.00;;;;;;5010269;28;20175;-78
2023/07/06 03:53:21;;;;;;;11.80;7.80;;;563.20;2432.00;;;;;;5031533;28;20068;-78
2023/07/06 03:55:51;;;;;;;11.13;7.68;;;563.20;2432.00;;;;;;5031788;28;21258;-78
2023/07/06 03:58:21;;;;;;;11.88;7.47;;;563.20;2432.00;;;;;;5032037;28;20025;-81
2023/07/06 04:00:47;;;;;;;14.88;7.43;;;563.30;2432.00;;;;;;5014033;28;20022;-78
2023/07/06 04:03:14;;;;;;;10.90;7.22;;;563.30;2432.00;;;;;;5031562;28;20495;-77
2023/07/06 04:05:47;;;;;;;12.05;7.60;;;563.40;2432.00;;;;;;5029224;28;20122;-79
2023/07/06 04:08:17;;;;;;;11.63;7.30;;;563.40;2432.00;;;;;;5031111;28;20060;-79
2023/07/06 04:10:43;;;;;;;10.27;7.20;;;563.50;2432.00;;;;;;5031176;28;20021;-79
2023/07/06 04:13:10;;;;;;;10.57;6.80;;;563.50;2432.00;;;;;;5031225;28;20036;-79
2023/07/06 04:15:38;;;;;;;10.93;6.70;;;563.50;2432.00;;;;;;5031952;28;20474;-81
2023/07/06 04:18:05;;;;;;;9.15;6.60;;;563.60;2432.00;;;;;;5032113;28;20120;-79
2023/07/06 04:20:32;;;;;;;10.52;6.78;;;563.60;2432.00;;;;;;5031410;28;20052;-78
2023/07/06 04:22:58;;;;;;;13.48;6.63;;;563.70;2432.00;;;;;;5025605;28;20036;-78
2023/07/06 04:25:29;;;;;;;13.00;6.55;;;563.70;2432.00;;;;;;5032020;28;20029;-79
2023/07/06 04:27:56;;;;;;;9.05;6.43;;;563.80;2432.00;;;;;;5031603;28;20037;-80
2023/07/06 04:30:22;;;;;;;12.43;6.45;;;563.80;2432.00;;;;;;5031375;28;20040;-83
2023/07/06 04:32:50;;;;;;;9.80;6.65;;;563.90;2432.00;;;;;;5031439;28;20021;-79
2023/07/06 04:35:21;;;;;;;12.50;8.05;;;563.50;2432.00;;;;;;5031349;28;20033;-82
2023/07/06 04:37:48;;;;;;;15.75;8.77;;;563.90;2432.00;;;;;;5026174;28;20036;-78
2023/07/06 04:40:17;;;;;;;12.98;8.25;;;563.90;2432.00;;;;;;5030978;28;20529;-79
2023/07/06 04:42:46;;;;;;;14.00;7.57;;;563.90;2432.00;;;;;;5016979;28;20394;-83
2023/07/06 04:45:12;;;;;;;9.23;6.70;;;563.70;2432.00;;;;;;5031780;28;20399;-78
2023/07/06 04:47:39;;;;;;;10.88;6.13;;;563.80;2432.00;;;;;;5035305;28;20387;-81
2023/07/06 04:50:10;;;;;;;9.38;5.97;;;563.90;2432.00;;;;;;5031142;28;20029;-85
2023/07/06 04:52:37;;;;;;;9.55;5.40;;;564.00;2432.00;;;;;;5017521;28;20018;-81
2023/07/06 04:55:05;;;;;;;9.80;5.53;;;563.90;2432.00;;;;;;5029149;28;20471;-81
2023/07/06 04:57:31;;;;;;;10.00;5.60;;;563.90;2432.00;;;;;;5035306;28;20048;-80
2023/07/06 04:59:57;;;;;;;9.10;5.47;;;564.00;2432.00;;;;;;5026267;28;20021;-79
2023/07/06 05:02:23;;;;;;;8.90;5.07;;;588.80;2432.00;;;;;;5035949;28;20092;-79
2023/07/06 05:04:49;;;;;;;7.75;5.07;;;588.80;2432.00;;;;;;5034381;28;20391;-78
2023/07/06 05:07:15;;;;;;;7.38;4.88;;;588.80;2432.00;;;;;;5035797;28;20128;-79
2023/07/06 05:09:42;;;;;;;9.40;5.07;;;564.10;2432.00;;;;;;5031191;28;20049;-78
2023/07/06 05:12:10;;;;;;;8.68;4.90;;;564.10;2432.00;;;;;;5029303;28;20021;-80
2023/07/06 05:14:35;;;;;;;6.95;4.88;;;588.80;2432.00;;;;;;5031512;28;20052;-80
2023/07/06 05:17:01;;;;;;;6.55;4.32;;;588.80;2432.00;;;;;;5033634;28;20045;-79
2023/07/06 05:19:28;;;;;;;7.57;4.47;;;588.90;2432.00;;;;;;5015821;28;20026;-79
2023/07/06 05:21:57;;;;;;;5.93;4.15;;;589.00;2432.00;;;;;;5029964;28;20475;-79
2023/07/06 05:24:26;;;;;;;5.88;4.00;;;589.20;2432.00;;;;;;5031035;28;20077;-79
2023/07/06 05:26:52;;;;;;;8.10;4.00;;;589.00;2432.00;;;;;;5030177;28;20025;-79
2023/07/06 05:29:18;;;;;;;6.78;3.95;;;589.20;2432.00;;;;;;5035740;28;20345;-79
2023/07/06 05:31:46;;;;;;;6.55;4.03;;;589.40;2432.00;;;;;;5035079;28;20545;-80
2023/07/06 05:34:12;;;;;;;6.95;3.88;;;589.60;2432.00;;;;;;5035246;28;20091;-79
2023/07/06 05:36:38;;;;;;;6.65;3.97;;;589.60;2432.00;;;;;;5029265;28;20087;-79
2023/07/06 05:39:22;;;;;;;7.75;3.90;;;589.70;2432.00;;;;;;5035328;28;20414;-79
2023/07/06 05:41:48;;;;;;;5.40;3.50;;;614.50;2432.00;;;;;;5033493;28;20033;-81
2023/07/06 05:44:14;;;;;;;5.15;3.40;;;614.70;2432.00;;;;;;5055636;28;20386;-81
2023/07/06 05:46:39;;;;;;;9.52;3.70;;;614.50;2432.00;;;;;;5047500;28;20028;-79
2023/07/06 05:49:05;;;;;;;5.43;3.55;;;614.50;2432.00;;;;;;5036778;28;20437;-80
2023/07/06 05:51:31;;;;;;;5.15;3.30;;;614.50;2432.00;;;;;;5042914;28;20029;-79
2023/07/06 05:53:58;;;;;;;5.68;3.47;;;614.60;2432.00;;;;;;5035151;28;20049;-79
2023/07/06 05:56:25;;;;;;;4.07;3.03;;;614.70;2432.00;;;;;;5034758;28;20048;-79
2023/07/06 05:58:51;;;;;;;5.95;3.40;;;614.80;2432.00;;;;;;5034591;28;20038;-80
2023/07/06 06:01:19;;;;;;;7.70;3.20;;;614.80;2432.00;;;;;;5024858;28;20061;-86
2023/07/06 06:03:45;;;;;;;7.40;3.10;;;614.80;2432.00;;;;;;5034183;28;20044;-78
2023/07/06 06:06:11;;;;;;;7.07;3.40;;;614.80;2432.00;;;;;;5048897;28;20120;-80
2023/07/06 06:08:38;;;;;;;5.95;3.10;;;614.90;2432.00;;;;;;5020448;28;20105;-82
2023/07/06 06:11:04;;;;;;;7.22;3.58;;;615.00;2432.00;;;;;;5027180;28;20060;-81
2023/07/06 06:13:30;;;;;;;7.28;3.20;;;615.00;2432.00;;;;;;5016841;28;20080;-80
2023/07/06 06:15:57;;;;;;;5.95;3.15;;;614.80;2432.00;;;;;;5018743;28;20471;-79
2023/07/06 06:18:25;;;;;;;4.88;3.20;;;614.80;2432.00;;;;;;5034692;28;20022;-80
2023/07/06 06:20:51;;;;;;;6.25;3.22;;;614.80;2432.00;;;;;;5034399;28;20041;-80
2023/07/06 06:23:20;;;;;;;10.55;3.58;;;615.00;2432.00;;;;;;5033953;28;20032;-79
2023/07/06 06:25:46;;;;;;;4.45;3.10;;;615.10;2432.00;;;;;;5034192;28;20045;-79
2023/07/06 06:28:12;;;;;;;6.60;3.00;;;640.00;2432.00;;;;;;5033989;28;20026;-80
2023/07/06 06:30:40;;;;;;;8.02;3.55;;;615.30;2432.00;;;;;;5034369;28;20023;-78
2023/07/06 06:33:06;;;;;;;6.95;2.88;;;615.30;2432.00;;;;;;5033689;28;20387;-79
2023/07/06 06:35:33;;;;;;;7.40;3.10;;;640.00;2432.00;;;;;;5027154;28;20120;-82
2023/07/06 06:37:59;;;;;;;7.28;3.20;;;640.10;2432.00;;;;;;5028709;28;20025;-83
2023/07/06 06:40:27;;;;;;;8.80;3.10;;;640.30;2432.00;;;;;;5029827;28;20025;-79
2023/07/06 06:42:54;;;;;;;5.55;2.83;;;640.60;2432.00;;;;;;5016548;28;20033;-80
2023/07/06 06:45:21;;;;;;;7.97;3.08;;;;;;;;;;5033881;28;20122;-86
2023/07/06 06:47:48;;;;;;;4.93;2.90;;;;;;;;;;5032178;28;20026;-80
2023/07/06 06:50:16;;;;;;;5.32;2.85;;;;;;;;;;5021389;28;20463;-79
2023/07/06 06:52:43;;;;;;;8.45;3.20;;;;;;;;;;5030340;28;20034;-79
2023/07/06 06:55:09;;;;;;;5.47;3.10;;;;;;;;;;5030223;28;20025;-79
2023/07/06 06:57:36;;;;;;;5.93;3.08;;;;;;;;;;5016732;28;20056;-81
2023/07/06 07:00:06;;;;;;;5.22;2.70;;;;;;;;;;5043343;28;20122;-79
2023/07/06 07:02:32;;;;;;;8.55;2.90;;;;;;;;;;5022838;28;20029;-79
2023/07/06 07:05:00;;;;;;;7.22;3.08;;;;;;;;;;5033598;28;20030;-79
2023/07/06 07:07:27;;;;;;;7.22;2.97;;;665.90;2432.00;;;;;;5022061;28;20033;-80
2023/07/06 07:09:53;;;;;;;5.53;2.67;;;665.60;2432.00;;;;;;5033693;28;20079;-79
2023/07/06 07:12:20;;;;;;;6.75;2.88;;;665.70;2432.00;;;;;;5035458;28;20529;-80
2023/07/06 07:14:46;;;;;;;5.57;2.67;;;665.60;2432.00;;;;;;5019747;28;20038;-83
2023/07/06 07:17:13;;;;;;;7.60;3.00;;;665.60;2432.00;;;;;;5033344;28;20037;-82
2023/07/06 07:19:39;;;;;;;5.68;2.90;;;665.70;2432.00;;;;;;5033471;28;20108;-81
2023/07/06 07:22:06;;;;;;;4.78;2.97;;;665.80;2432.00;;;;;;5034132;28;20120;-90
2023/07/06 07:24:32;;;;;;;6.88;3.05;;;665.80;2432.00;;;;;;5033308;28;20045;-86
2023/07/06 07:27:01;;;;;;;5.65;2.72;;;666.00;2432.00;;;;;;5026408;28;20021;-88
2023/07/06 07:29:26;;;;;;;5.93;2.80;;;666.10;2432.00;;;;;;5016463;28;20033;-86
2023/07/06 07:31:53;;;;;;;5.00;2.80;;;666.10;2432.00;;;;;;5019847;28;20100;-83
2023/07/06 07:34:19;;;;;;;8.35;3.28;;;666.10;2432.00;;;;;;5033470;28;20136;-88
2023/07/06 07:36:45;;;;;;;4.65;2.92;;;666.20;2432.00;;;;;;5033841;28;20370;-88
2023/07/06 07:39:11;;;;;;;5.35;2.90;;;666.20;2432.00;;;;;;5033675;28;20034;-87
2023/07/06 07:41:37;;;;;;;12.48;3.38;;;666.20;2432.00;;;;;;5030391;28;20021;-79
2023/07/06 07:44:04;;;;;;;6.55;3.08;;;666.20;2432.00;;;;;;5023623;28;20410;-84
2023/07/06 07:46:30;;;;;;;6.15;2.80;;;666.40;2432.00;;;;;;5014445;28;20038;-81
2023/07/06 07:48:56;;;;;;;6.63;3.22;;;691.30;2432.00;;;;;;5033151;28;20033;-78
2023/07/06 07:51:24;;;;;;;7.57;3.40;;;691.20;2432.00;;;;;;5032463;28;20025;-79
2023/07/06 07:53:52;;;;;;;8.07;3.33;;;691.40;2432.00;;;;;;5032985;28;20116;-77
2023/07/06 07:56:19;;;;;;;7.22;3.38;;;691.60;2432.00;;;;;;5032622;28;20022;-75
2023/07/06 07:58:48;;;;;;;6.53;3.50;;;692.10;2432.00;;;;;;5032989;28;20021;-76
2023/07/06 08:01:15;;;;;;;4.45;3.00;;;;;;;;;;5033281;28;20100;-77
2023/07/06 08:03:42;;;;;;;5.70;3.20;;;;;;;;;;5017803;28;20022;-76
2023/07/06 08:06:09;;;;;;;6.95;3.20;;;;;;;;;;5037182;28;20042;-79
2023/07/06 08:08:36;;;;;;;4.63;3.00;;;;;;;;;;5031314;28;20022;-80
2023/07/06 08:11:07;;;;;;;5.80;3.00;;;;;;;;;;5031646;28;20025;-79
2023/07/06 08:13:34;;;;;;;5.80;3.03;;;;;;;;;;5027764;28;20419;-81
2023/07/06 08:16:01;;;;;;;6.50;3.03;;;;;;;;;;5032414;28;20502;-80
2023/07/06 08:18:28;;;;;;;5.32;3.20;;;;;;;;;;5032833;28;20033;-81
2023/07/06 08:20:54;;;;;;;6.70;3.15;;;;;;;;;;5036517;28;20388;-80
2023/07/06 08:23:24;;;;;;;5.30;3.00;;;;;;;;;;5036486;28;20501;-80
2023/07/06 08:25:51;;;;;;;5.10;2.95;;;;;;;;;;5036312;28;20069;-79
2023/07/06 08:28:20;;;;;;;5.28;3.10;;;;;;;;;;5033521;28;20026;-77
2023/07/06 08:30:46;;;;;;;5.78;3.17;;;;;;;;;;5036830;28;20126;-78
2023/07/06 08:33:13;;;;;;;4.75;2.65;;;;;;;;;;5036071;28;20041;-82
2023/07/06 08:35:42;;;;;;;4.63;2.97;;;;;;;;;;5033323;28;20036;-80
2023/07/06 08:38:09;;;;;;;6.60;3.08;;;;;;;;;;5035934;28;20018;-81
2023/07/06 08:40:35;;;;;;;5.93;3.40;;;;;;;;;;5033123;28;20025;-81
2023/07/06 08:43:04;;;;;;;4.78;2.83;;;743.20;2201.60;;;;;;5036069;28;20021;-82
2023/07/06 08:45:41;;;;;;;13.50;3.42;;;;;;;;;;5035831;28;20494;-80
2023/07/06 08:48:14;;;;;;;7.80;3.60;;;;;;;;;;5036047;28;20045;-80
2023/07/06 08:50:42;;;;;;;5.80;3.40;;;;;;;;;;5036319;28;20029;-79
2023/07/06 08:53:14;;;;;;;6.78;3.28;;;;;;;;;;5035966;28;20643;-80
2023/07/06 08:55:40;;;;;;;6.65;3.15;;;;;;;;;;5035767;28;20040;-80
2023/07/06 08:58:09;;;;;;;4.47;2.83;;;;;;;;;;5035062;28;20083;-79
2023/07/06 09:00:35;;;;;;;4.47;3.10;;;;;;;;;;5016540;28;20467;-80
2023/07/06 09:03:11;;;;;;;8.35;3.33;;;;;;;;;;5040346;28;20032;-80
2023/07/06 09:05:38;;;;;;;8.35;3.38;;;;;;;;;;5033360;28;20073;-79
2023/07/06 09:08:05;;;;;;;7.25;3.30;;;;;;;;;;5013133;28;20032;-82
2023/07/06 09:10:32;;;;;;;8.10;3.35;;;;;;;;;;5024286;28;20029;-81
2023/07/06 09:13:36;;;;;;;4.88;3.47;;;;;;;;;;5035042;28;20466;-79
2023/07/06 09:16:03;;;;;;;4.13;2.95;;;;;;;;;;4946201;29;20050;-84
2023/07/06 09:18:30;;;;;;;6.35;3.38;;;;;;;;;;4942456;29;20058;-84
2023/07/06 09:20:58;;;;;;;5.68;3.10;;;793.80;2048.00;;;;;;4926265;29;20044;-80
2023/07/06 09:23:24;;;;;;;4.90;3.10;;;793.90;2048.00;;;;;;4920555;29;20058;-80
2023/07/06 09:25:53;;;;;;;5.97;3.00;;;794.00;2048.00;;;;;;4933867;29;20054;-77
2023/07/06 09:28:23;;;;;;;6.50;3.10;;;794.10;2073.60;;;;;;4935620;29;20027;-79
2023/07/06 09:31:04;;;;;;;6.90;3.42;;;794.10;2022.40;;;;;;4919094;29;20047;-80
2023/07/06 09:33:30;;;;;;;5.78;3.20;;;794.30;2022.40;;;;;;4921326;29;20056;-80
2023/07/06 09:35:57;;;;;;;9.13;3.47;;;;;;;;;;4938226;29;20059;-80
2023/07/06 09:38:25;;;;;;;4.35;3.17;;;;;;;;;;4932988;29;20035;-80
2023/07/06 09:40:52;;;;;;;6.45;3.30;;;;;;;;;;4938471;29;20114;-80
2023/07/06 09:43:27;;;;;;;4.82;3.00;;;;;;;;;;4932038;29;20040;-80
2023/07/06 09:45:54;;;;;;;9.30;4.10;;;;;;;;;;4941516;29;20086;-80
2023/07/06 09:48:37;;;;;;;5.05;3.20;;;819.20;1945.60;;;;;;4937748;29;20266;-79
2023/07/06 09:51:14;;;;;;;6.03;3.37;;;794.50;1945.60;;;;;;4964093;28;20056;-84
2023/07/06 09:54:03;;;;;;;5.03;3.55;;;794.50;1971.20;;;;;;5023375;28;20181;-80
2023/07/06 09:56:29;;;;;;;7.65;3.65;;;;;;;;;;5027500;28;20034;-80
2023/07/06 09:58:56;;;;;;;7.28;3.55;;;;;;;;;;5013829;28;20018;-80
2023/07/06 10:01:31;;;;;;;8.23;3.40;;;;;;;;;;4995888;28;20040;-81
2023/07/06 10:04:03;;;;;;;6.38;3.67;;;;;;;;;;5013758;28;20030;-89
2023/07/06 10:06:36;;;;;;;6.50;3.25;;;;;;;;;;5016219;28;20040;-90
2023/07/06 10:09:08;;;;;;;10.90;3.60;;;;;;;;;;5039066;28;20033;-82
2023/07/06 10:11:34;;;;;;;6.13;3.65;;;;;;;;;;5023054;28;20034;-84
2023/07/06 10:14:26;;;;;;;5.60;3.47;;;819.60;1868.80;;;;;;5025334;28;20017;-85
2023/07/06 10:17:20;;;;;;;7.18;3.63;;;819.30;1894.40;;;;;;5017384;28;20076;-85
2023/07/06 10:20:05;;;;;;;6.28;3.50;;;819.20;1843.20;;;;;;5039854;28;20483;-80
2023/07/06 10:22:31;;;;;;;6.45;3.45;;;819.60;1843.20;;;;;;5041242;28;20076;-82
2023/07/06 10:25:23;;;;;;;6.18;3.60;;;819.50;1843.20;;;;;;5032182;28;20069;-83
2023/07/06 10:28:03;;;;;;;5.50;3.28;;;819.70;1843.20;;;;;;5030266;28;20065;-83
2023/07/06 10:30:36;;;;;;;5.75;3.45;;;819.70;1843.20;;;;;;5032557;28;20047;-87
2023/07/06 10:33:23;;;;;;;5.57;3.25;;;819.40;1843.20;;;;;;5027600;28;20076;-80
2023/07/06 10:35:50;;;;;;;4.40;3.03;;;819.50;1843.20;;;;;;5030355;28;20045;-82
2023/07/06 10:38:18;;;;;;;6.55;3.30;;;819.70;1843.20;;;;;;5031199;28;20475;-81
2023/07/06 10:41:12;;;;;;;7.30;3.22;;;844.80;1843.20;;;;;;5030722;28;20037;-83
2023/07/06 10:43:48;;;;;;;4.28;3.03;;;820.10;1792.00;;;;;;5030687;28;20091;-86
2023/07/06 10:46:36;;;;;;;6.43;2.83;;;819.50;1792.00;;;;;;4996913;28;20479;-80
2023/07/06 10:49:21;;;;;;;5.32;3.33;;;819.90;1843.20;;;;;;5023171;28;20091;-83
2023/07/06 10:51:50;;;;;;;4.70;3.03;;;845.10;1766.40;;;;;;5024554;28;20087;-80
2023/07/06 10:54:21;;;;;;;5.47;3.70;;;844.80;1792.00;;;;;;5014811;28;20442;-82
2023/07/06 10:57:01;;;;;;;8.68;3.20;;;845.10;1792.00;;;;;;5024370;28;20030;-82
2023/07/06 10:59:41;;;;;;;6.60;3.50;;;845.70;1766.40;;;;;;5012694;28;20384;-81
2023/07/06 11:02:18;;;;;;;5.00;3.33;;;845.30;1792.00;;;;;;5024681;28;20128;-77
2023/07/06 11:04:54;;;;;;;5.88;3.55;;;845.50;1766.40;;;;;;5028691;28;20095;-79
2023/07/06 11:07:39;;;;;;;5.88;3.25;;;845.10;1792.00;;;;;;5029006;28;20045;-79
2023/07/06 11:10:12;;;;;;;6.30;3.47;;;845.50;1766.40;;;;;;5028398;28;20399;-78
2023/07/06 11:12:49;;;;;;;5.88;3.38;;;870.40;1740.80;;;;;;5024392;28;20041;-78
2023/07/06 11:15:23;;;;;;;4.95;3.30;;;870.40;1740.80;;;;;;5028132;28;20037;-83
2023/07/06 11:17:52;;;;;;;7.90;3.63;;;845.60;1689.60;;;;;;5028926;28;20021;-79
2023/07/06 11:20:24;;;;;;;5.03;3.22;;;845.10;1740.80;;;;;;5024641;28;20457;-78
2023/07/06 11:22:59;;;;;;;5.40;3.45;;;844.80;1740.80;;;;;;5015605;28;20045;-79
2023/07/06 11:25:28;;;;;;;6.28;3.25;;;;;;;;;;5004741;28;20040;-80
2023/07/06 11:28:01;;;;;;;4.93;3.17;;;845.50;1715.20;;;;;;5013841;28;20037;-79
2023/07/06 11:30:39;;;;;;;5.20;3.60;;;844.90;1740.80;;;;;;5015036;28;20033;-80
2023/07/06 11:33:13;;;;;;;5.43;3.33;;;820.10;1766.40;;;;;;5028114;28;20048;-83
2023/07/06 11:36:06;;;;;;;5.53;3.15;;;845.10;1740.80;;;;;;5028722;28;20386;-82
2023/07/06 11:38:50;;;;;;;;;;;845.60;1715.20;;;;;;5012379;28;20036;-79
2023/07/06 11:41:25;;;;;;;6.70;3.15;;;870.40;1689.60;;;;;;5025214;28;19913;-82
2023/07/06 11:44:32;;;;;;;4.93;3.50;;;845.40;1664.00;;;;;;5022952;28;20799;-83
2023/07/06 11:47:23;;;;;;;5.82;3.15;;;844.90;1715.20;;;;;;5010647;28;20049;-82
2023/07/06 11:49:56;;;;;;;4.50;3.17;;;844.90;1715.20;;;;;;5028399;28;20017;-79
2023/07/06 11:52:22;;;;;;;5.90;3.20;;;845.10;1715.20;;;;;;5029624;28;20087;-79
2023/07/06 11:55:05;;;;;;;7.05;3.40;;;844.80;1689.60;;;;;;5018662;28;20476;-82
2023/07/06 11:58:29;;;;;;;6.82;3.30;;;820.00;1689.60;;;;;;5029803;28;20402;-77
2023/07/06 12:01:00;;;;;;;4.72;3.42;;;820.00;1689.60;;;;;;5004709;28;20732;-78
2023/07/06 12:03:27;;;;;;;6.18;2.92;;;820.00;1715.20;;;;;;5033206;28;20788;-79
2023/07/06 12:05:59;;;;;;;5.80;3.47;;;819.90;1715.20;;;;;;5029030;28;20042;-78
2023/07/06 12:08:37;;;;;;;5.38;3.35;;;819.50;1740.80;;;;;;5027110;28;20044;-81
2023/07/06 12:11:14;;;;;;;8.90;3.67;;;819.30;1740.80;;;;;;5030000;28;20018;-79
2023/07/06 12:13:43;;;;;;;5.47;3.40;;;819.30;1715.20;;;;;;5026888;28;20034;-78
2023/07/06 12:16:11;;;;;;;6.80;3.55;;;819.20;1715.20;;;;;;5032927;28;20140;-85
2023/07/06 12:18:38;;;;;;;5.80;3.80;;;819.20;1715.20;;;;;;5031737;28;20387;-81
2023/07/06 12:21:05;;;;;;;6.63;3.80;;;819.20;1740.80;;;;;;5037928;28;20097;-80
2023/07/06 12:23:32;;;;;;;8.80;3.72;;;794.50;1740.80;;;;;;5030145;28;20080;-81
2023/07/06 12:25:59;;;;;;;7.57;3.70;;;819.20;1715.20;;;;;;5012038;28;20033;-85
2023/07/06 12:28:29;;;;;;;5.72;3.47;;;819.30;1715.20;;;;;;5031312;28;20037;-82
2023/07/06 12:31:00;;;;;;;7.47;3.53;;;819.60;1715.20;;;;;;5013811;28;20550;-78
2023/07/06 12:33:28;;;;;;;4.53;3.22;;;819.70;1715.20;;;;;;5030315;28;20795;-79
2023/07/06 12:35:54;;;;;;;8.15;4.00;;;819.40;1740.80;;;;;;5029632;28;20037;-78
2023/07/06 12:38:20;;;;;;;4.80;3.03;;;819.20;1792.00;;;;;;5015788;28;20034;-84
2023/07/06 12:40:46;;;;;;;9.70;3.35;;;819.60;1792.00;;;;;;5031174;28;20433;-79
2023/07/06 12:43:34;;;;;;;6.13;3.83;;;;;;;;;;5028591;28;20049;-78
2023/07/06 12:46:00;;;;;;;8.07;3.90;;;819.30;1792.00;;;;;;5013792;28;20402;-79
2023/07/06 12:48:26;;;;;;;5.90;3.03;;;;;;;;;;5026766;28;20034;-83
2023/07/06 12:50:54;;;;;;;5.10;3.22;;;794.20;1843.20;;;;;;5029552;28;20029;-82
2023/07/06 12:53:27;;;;;;;5.50;3.30;;;;;;;;;;5031247;28;20037;-81